Time;durP1;ratioP1;P1;durP2;ratioP2;P2;SDS_P1;SDS_P2;PMS_P1;PMS_P2;Temp;Humidity;BMP_temperature;BMP_pressure;BME280_temperature;BME280_humidity;BME280_pressure;Samples;Min_cycle;Max_cycle;Signal;HPM_P1;HPM_P2
2024/04/17 00:02:07;;;;;;;29.85;28.23;;;;;;;;;;5365189;26;20436;-69
2024/04/17 00:04:32;;;;;;;31.23;29.58;;;;;;;;;;5363813;26;20016;-70
2024/04/17 00:06:57;;;;;;;31.00;29.38;;;;;;;;;;5362630;26;20009;-70
2024/04/17 00:09:23;;;;;;;31.63;29.95;;;;;;;;;;5365900;26;20020;-70
2024/04/17 00:11:48;;;;;;;34.70;32.90;;;;;;;;;;5366942;26;20016;-69
2024/04/17 00:14:13;;;;;;;33.67;31.90;;;;;;;;;;5364347;26;20016;-69
2024/04/17 00:16:39;;;;;;;33.00;31.30;;;;;;;;;;5364430;26;20044;-69
2024/04/17 00:19:04;;;;;;;32.22;30.52;;;;;;;;;;5367442;26;20587;-69
2024/04/17 00:21:29;;;;;;;34.45;32.63;;;;;;;;;;5416646;26;20325;-69
2024/04/17 00:23:55;;;;;;;33.88;32.05;;;;;;;;;;5367291;26;20080;-66
2024/04/17 00:26:20;;;;;;;34.10;32.33;;;;;;;;;;5367308;26;20016;-66
2024/04/17 00:28:46;;;;;;;34.28;32.17;;;;;;;;;;5362156;26;20024;-66
2024/04/17 00:31:11;;;;;;;35.65;33.75;;;;;;;;;;5370330;26;20081;-69
2024/04/17 00:33:36;;;;;;;37.22;35.28;;;;;;;;;;5364598;26;20020;-70
2024/04/17 00:36:02;;;;;;;39.38;37.30;;;;;;;;;;5362970;26;20027;-70
2024/04/17 00:38:27;;;;;;;36.08;34.17;;;;;;;;;;5365550;26;20020;-66
2024/04/17 00:40:53;;;;;;;36.10;34.20;;;;;;;;;;5363227;26;20420;-69
2024/04/17 00:43:18;;;;;;;35.10;33.17;;;;;;;;;;5362241;26;20050;-70
2024/04/17 00:45:46;;;;;;;40.00;37.85;;;;;;;;;;5363475;26;20000;-66
2024/04/17 00:48:13;;;;;;;39.35;37.28;;;;;;;;;;5364077;26;20012;-66
2024/04/17 00:50:48;;;;;;;38.42;36.28;;;;;;;;;;5364024;26;20087;-66
2024/04/17 00:53:17;;;;;;;39.55;37.53;;;;;;;;;;5364020;26;20418;-67
2024/04/17 00:55:44;;;;;;;38.40;36.40;;;;;;;;;;5358311;26;20013;-67
2024/04/17 00:58:11;;;;;;;41.15;39.00;;;;;;;;;;5361966;26;20004;-67
2024/04/17 01:00:37;;;;;;;44.22;41.72;;;;;;;;;;5361554;26;20000;-69
2024/04/17 01:03:02;;;;;;;43.38;41.15;;;;;;;;;;5357811;26;20031;-70
2024/04/17 01:05:29;;;;;;;44.35;42.08;;;;;;;;;;5360105;26;20012;-67
2024/04/17 01:07:54;;;;;;;44.97;42.63;;;;;;;;;;5364611;26;20441;-67
2024/04/17 01:10:20;;;;;;;42.03;39.85;;;;;;;;;;5364535;26;20005;-69
2024/04/17 01:12:45;;;;;;;48.97;45.65;;;;;;;;;;5361460;26;20039;-69
2024/04/17 01:15:10;;;;;;;45.92;43.45;;;;;;;;;;5362493;26;20008;-67
2024/04/17 01:17:37;;;;;;;46.28;43.88;;;;;;;;;;5367820;26;20023;-67
2024/04/17 01:20:03;;;;;;;45.13;42.75;;;;;;;;;;5360058;26;20105;-69
2024/04/17 01:22:29;;;;;;;45.75;43.28;;;;;;;;;;5364508;26;20086;-67
2024/04/17 01:24:54;;;;;;;47.00;44.60;;;;;;;;;;5361934;26;20024;-67
2024/04/17 01:27:19;;;;;;;45.70;43.35;;;;;;;;;;5368834;26;20008;-67
2024/04/17 01:29:45;;;;;;;46.58;44.17;;;;;;;;;;5358578;26;20011;-68
2024/04/17 01:32:10;;;;;;;42.22;40.03;;;;;;;;;;5361791;26;20027;-68
2024/04/17 01:34:35;;;;;;;39.85;37.80;;;;;;;;;;5362511;26;20008;-66
2024/04/17 01:37:01;;;;;;;39.78;37.67;;;;;;;;;;5362649;26;20722;-68
2024/04/17 01:39:26;;;;;;;40.28;38.22;;;;;;;;;;5362010;26;20016;-65
2024/04/17 01:41:51;;;;;;;42.70;40.40;;;;;;;;;;5364460;26;20016;-68
2024/04/17 01:44:17;;;;;;;43.13;40.88;;;;;;;;;;5334291;26;20019;-65
2024/04/17 01:46:42;;;;;;;44.88;42.58;;;;;;;;;;5359511;26;20090;-65
2024/04/17 01:49:07;;;;;;;48.50;46.03;;;;;;;;;;5360950;26;20008;-70
2024/04/17 01:51:33;;;;;;;49.88;47.33;;;;;;;;;;5358482;26;20469;-69
2024/04/17 01:53:58;;;;;;;56.80;53.95;;;;;;;;;;5360065;26;20066;-66
2024/04/17 01:56:23;;;;;;;60.38;57.22;;;;;;;;;;5356948;26;20505;-65
2024/04/17 01:58:48;;;;;;;59.20;56.20;;;;;;;;;;5363538;26;20004;-65
2024/04/17 02:01:14;;;;;;;68.85;65.40;;;;;;;;;;5360212;26;20022;-65
2024/04/17 02:03:39;;;;;;;88.97;84.55;;;;;;;;;;5366204;26;20025;-67
2024/04/17 02:06:05;;;;;;;84.80;80.55;;;;;;;;;;5356002;26;20052;-65
2024/04/17 02:08:30;;;;;;;90.53;86.05;;;;;;;;;;5362172;26;20020;-65
2024/04/17 02:10:56;;;;;;;87.10;82.70;;;;;;;;;;5359558;26;20019;-65
2024/04/17 02:13:21;;;;;;;90.63;86.13;;;;;;;;;;5364723;26;20009;-67
2024/04/17 02:15:46;;;;;;;87.90;83.50;;;;;;;;;;5359241;26;20417;-68
2024/04/17 02:18:12;;;;;;;82.45;78.32;;;;;;;;;;5361237;26;20012;-68
2024/04/17 02:20:38;;;;;;;92.82;88.07;;;;;;;;;;5362773;26;20372;-67
2024/04/17 02:23:03;;;;;;;92.68;88.07;;;;;;;;;;5360190;26;20457;-68
2024/04/17 02:25:28;;;;;;;92.22;87.63;;;;;;;;;;5360753;26;20008;-68
2024/04/17 02:27:54;;;;;;;91.85;87.28;;;;;;;;;;5364916;26;20023;-68
2024/04/17 02:30:19;;;;;;;85.78;81.53;;;;;;;;;;5363940;26;20020;-68
2024/04/17 02:32:44;;;;;;;72.53;68.88;;;;;;;;;;5363998;26;20063;-66
2024/04/17 02:35:10;;;;;;;87.72;83.35;;;;;;;;;;5361151;26;20365;-66
2024/04/17 02:37:35;;;;;;;75.22;71.40;;;;;;;;;;5365441;26;20049;-67
2024/04/17 02:40:01;;;;;;;70.05;66.43;;;;;;;;;;5362860;26;20113;-67
2024/04/17 02:42:26;;;;;;;68.13;64.68;;;;;;;;;;5362899;26;20024;-66
2024/04/17 02:44:51;;;;;;;68.10;64.68;;;;;;;;;;5365721;26;20095;-66
2024/04/17 02:47:17;;;;;;;67.70;64.25;;;;;;;;;;5367619;26;20009;-68
2024/04/17 02:49:44;;;;;;;66.45;63.05;;;;;;;;;;5364897;26;20026;-69
2024/04/17 02:52:09;;;;;;;68.40;64.95;;;;;;;;;;5363687;26;20031;-66
2024/04/17 02:54:34;;;;;;;61.65;58.53;;;;;;;;;;5361167;26;20713;-66
2024/04/17 02:57:00;;;;;;;64.78;61.42;;;;;;;;;;5363519;26;20008;-66
2024/04/17 02:59:25;;;;;;;65.13;61.83;;;;;;;;;;5361962;26;20004;-67
2024/04/17 03:01:50;;;;;;;68.35;64.85;;;;;;;;;;5360793;26;20430;-66
2024/04/17 03:04:16;;;;;;;75.15;71.32;;;;;;;;;;5364884;26;20102;-67
2024/04/17 03:06:41;;;;;;;76.07;72.28;;;;;;;;;;5360848;26;20376;-68
2024/04/17 03:09:06;;;;;;;63.95;60.72;;;;;;;;;;5363193;26;20448;-68
2024/04/17 03:11:32;;;;;;;66.80;63.42;;;;;;;;;;5365803;26;20012;-65
2024/04/17 03:13:57;;;;;;;61.17;58.05;;;;;;;;;;5362974;26;20027;-68
2024/04/17 03:16:26;;;;;;;63.40;60.17;;;;;;;;;;5370241;26;20010;-66
2024/04/17 03:18:52;;;;;;;67.03;63.60;;;;;;;;;;5357905;26;20070;-65
2024/04/17 03:21:17;;;;;;;68.40;64.93;;;;;;;;;;5361044;26;20433;-66
2024/04/17 03:23:42;;;;;;;68.72;65.22;;;;;;;;;;5363953;26;20044;-68
2024/04/17 03:26:07;;;;;;;63.42;60.20;;;;;;;;;;5365984;26;20440;-66
2024/04/17 03:28:33;;;;;;;63.88;60.55;;;;;;;;;;5366281;26;20023;-68
2024/04/17 03:30:59;;;;;;;61.05;57.95;;;;;;;;;;5365632;26;20034;-66
2024/04/17 03:33:25;;;;;;;61.08;57.72;;;;;;;;;;5366930;26;20603;-66
2024/04/17 03:35:58;;;;;;;58.92;55.83;;;;;;;;;;5364020;26;20004;-67
2024/04/17 03:38:24;;;;;;;70.07;66.50;;;;;;;;;;5363956;26;20009;-68
2024/04/17 03:40:51;;;;;;;61.90;58.72;;;;;;;;;;5364693;26;20009;-66
2024/04/17 03:43:16;;;;;;;62.13;58.83;;;;;;;;;;5364980;26;20012;-66
2024/04/17 03:45:41;;;;;;;75.25;71.40;;;;;;;;;;5360598;26;21368;-66
2024/04/17 03:48:07;;;;;;;70.90;67.28;;;;;;;;;;5362466;26;20030;-68
2024/04/17 03:50:32;;;;;;;85.70;81.35;;;;;;;;;;5365903;26;20012;-66
2024/04/17 03:52:57;;;;;;;66.85;63.38;;;;;;;;;;5366773;26;20103;-67
2024/04/17 03:55:23;;;;;;;85.90;81.55;;;;;;;;;;5362127;26;20063;-68
2024/04/17 03:57:48;;;;;;;82.13;77.85;;;;;;;;;;5362093;26;20019;-68
2024/04/17 04:00:14;;;;;;;76.53;72.63;;;;;;;;;;5362830;26;20031;-68
2024/04/17 04:02:39;;;;;;;79.93;75.85;;;;;;;;;;5364192;26;20040;-66
2024/04/17 04:05:05;;;;;;;86.28;81.88;;;;;;;;;;5366568;26;20087;-66
2024/04/17 04:07:30;;;;;;;91.05;86.32;;;;;;;;;;5367549;26;20035;-66
2024/04/17 04:09:56;;;;;;;91.72;87.05;;;;;;;;;;5331347;26;20024;-68
2024/04/17 04:12:21;;;;;;;77.30;73.35;;;;;;;;;;5364325;26;20032;-68
2024/04/17 04:14:47;;;;;;;73.80;69.88;;;;;;;;;;5366019;26;20090;-68
2024/04/17 04:17:12;;;;;;;88.70;84.15;;;;;;;;;;5359589;26;20017;-65
2024/04/17 04:19:37;;;;;;;87.18;82.72;;;;;;;;;;5366475;26;20070;-65
2024/04/17 04:22:03;;;;;;;76.97;73.07;;;;;;;;;;5364448;26;20566;-65
2024/04/17 04:24:28;;;;;;;91.38;86.75;;;;;;;;;;5362933;26;20103;-65
2024/04/17 04:26:53;;;;;;;72.97;69.13;;;;;;;;;;5364636;26;20000;-68
2024/04/17 04:29:19;;;;;;;83.97;79.68;;;;;;;;;;5364294;26;20173;-69
2024/04/17 04:31:44;;;;;;;74.13;70.25;;;;;;;;;;5363497;26;20008;-68
2024/04/17 04:34:10;;;;;;;75.78;71.85;;;;;;;;;;5362313;26;20013;-65
2024/04/17 04:36:36;;;;;;;90.55;85.95;;;;;;;;;;5361765;26;20027;-64
2024/04/17 04:39:01;;;;;;;97.65;92.72;;;;;;;;;;5367295;26;20020;-68
2024/04/17 04:41:27;;;;;;;98.15;93.15;;;;;;;;;;5363264;26;20008;-67
2024/04/17 04:43:52;;;;;;;84.65;80.38;;;;;;;;;;5363617;26;20008;-68
2024/04/17 04:46:17;;;;;;;81.82;77.65;;;;;;;;;;5339572;26;20157;-68
2024/04/17 04:48:43;;;;;;;77.40;73.50;;;;;;;;;;5361218;26;20008;-66
2024/04/17 04:51:08;;;;;;;80.82;76.72;;;;;;;;;;5364259;26;20436;-68
2024/04/17 04:53:33;;;;;;;91.28;86.70;;;;;;;;;;5364698;26;20062;-68
2024/04/17 04:56:02;;;;;;;90.75;86.03;;;;;;;;;;5365989;26;20393;-66
2024/04/17 04:58:28;;;;;;;84.45;80.07;;;;;;;;;;5365379;26;20348;-62
2024/04/17 05:00:54;;;;;;;79.82;75.70;;;;;;;;;;5362067;26;20453;-65
2024/04/17 05:03:20;;;;;;;88.85;84.03;;;;;;;;;;5362927;26;20444;-67
2024/04/17 05:05:46;;;;;;;78.80;74.80;;;;;;;;;;5365594;26;20005;-65
2024/04/17 05:08:11;;;;;;;79.10;75.10;;;;;;;;;;5364602;26;20422;-68
2024/04/17 05:10:37;;;;;;;83.93;79.70;;;;;;;;;;5360092;26;20008;-67
2024/04/17 05:13:03;;;;;;;83.22;79.03;;;;;;;;;;5363459;26;20017;-67
2024/04/17 05:15:28;;;;;;;82.32;77.93;;;;;;;;;;5358653;26;20004;-65
2024/04/17 05:17:54;;;;;;;80.32;76.25;;;;;;;;;;5362797;26;20008;-64
2024/04/17 05:20:19;;;;;;;74.38;70.65;;;;;;;;;;5365567;26;20042;-68
2024/04/17 05:22:45;;;;;;;63.05;59.83;;;;;;;;;;5361146;26;20076;-68
2024/04/17 05:25:11;;;;;;;57.75;54.83;;;;;;;;;;5363064;26;20023;-68
2024/04/17 05:27:36;;;;;;;51.58;48.78;;;;;;;;;;5361046;26;20004;-65
2024/04/17 05:30:04;;;;;;;52.03;49.38;;;;;;;;;;5367056;26;20022;-66
2024/04/17 05:32:29;;;;;;;43.65;41.40;;;;;;;;;;5362497;26;20016;-69
2024/04/17 05:34:55;;;;;;;46.33;43.95;;;;;;;;;;5362280;26;21081;-66
2024/04/17 05:37:20;;;;;;;48.17;45.72;;;;;;;;;;5359328;26;20020;-68
2024/04/17 05:39:45;;;;;;;48.42;45.92;;;;;;;;;;5366191;26;20075;-68
2024/04/17 05:42:11;;;;;;;52.15;49.47;;;;;;;;;;5362633;26;20044;-65
2024/04/17 05:44:37;;;;;;;47.92;45.45;;;;;;;;;;5366111;26;20008;-66
2024/04/17 05:47:03;;;;;;;45.22;42.80;;;;;;;;;;5366069;26;20430;-68
2024/04/17 05:49:29;;;;;;;38.70;36.40;;;;;;;;;;5364181;26;20468;-68
2024/04/17 05:51:54;;;;;;;32.95;31.13;;;;;;;;;;5365006;26;20078;-69
2024/04/17 05:54:19;;;;;;;32.15;30.45;;;;;;;;;;5366084;26;20083;-68
2024/04/17 05:56:45;;;;;;;29.35;27.38;;;;;;;;;;5365124;26;20000;-66
2024/04/17 05:59:10;;;;;;;25.77;24.38;;;;;;;;;;5363681;26;20004;-66
2024/04/17 06:01:35;;;;;;;23.50;22.23;;;;;;;;;;5367258;26;20012;-68
2024/04/17 06:04:01;;;;;;;24.90;23.55;;;;;;;;;;5368452;26;20036;-68
2024/04/17 06:06:26;;;;;;;24.88;23.58;;;;;;;;;;5361905;26;20756;-69
2024/04/17 06:08:51;;;;;;;24.00;22.60;;;;;;;;;;5363076;26;20014;-65
2024/04/17 06:11:17;;;;;;;23.92;22.58;;;;;;;;;;5364688;26;20062;-65
2024/04/17 06:13:42;;;;;;;23.73;22.42;;;;;;;;;;5363323;26;20048;-66
2024/04/17 06:16:07;;;;;;;23.52;22.23;;;;;;;;;;5362092;26;20012;-68
2024/04/17 06:18:33;;;;;;;23.77;22.48;;;;;;;;;;5363460;26;20514;-68
2024/04/17 06:20:58;;;;;;;22.52;21.23;;;;;;;;;;5367463;26;20022;-69
2024/04/17 06:23:23;;;;;;;23.33;22.02;;;;;;;;;;5361947;26;20333;-68
2024/04/17 06:25:49;;;;;;;23.90;22.60;;;;;;;;;;5359296;26;20012;-69
2024/04/17 06:28:17;;;;;;;24.83;23.52;;;;;;;;;;5329012;26;20027;-65
2024/04/17 06:30:42;;;;;;;25.48;23.98;;;;;;;;;;5365262;26;20017;-68
2024/04/17 06:33:08;;;;;;;29.48;27.90;;;;;;;;;;5358119;26;20011;-68
2024/04/17 06:35:33;;;;;;;39.83;37.72;;;;;;;;;;5364131;26;20021;-68
2024/04/17 06:37:59;;;;;;;36.25;34.38;;;;;;;;;;5363615;26;20023;-68
2024/04/17 06:40:24;;;;;;;44.83;41.92;;;;;;;;;;5360997;26;20004;-69
2024/04/17 06:42:50;;;;;;;46.08;43.60;;;;;;;;;;5362192;26;20442;-68
2024/04/17 06:45:16;;;;;;;43.20;41.00;;;;;;;;;;5362640;26;20005;-70
2024/04/17 06:47:43;;;;;;;43.38;41.17;;;;;;;;;;5363596;26;20321;-70
2024/04/17 06:50:08;;;;;;;44.65;42.22;;;;;;;;;;5359576;26;20016;-70
2024/04/17 06:52:33;;;;;;;41.95;39.80;;;;;;;;;;5360113;26;20399;-70
2024/04/17 06:54:59;;;;;;;50.33;47.72;;;;;;;;;;5364373;26;20009;-70
2024/04/17 06:57:24;;;;;;;54.47;51.58;;;;;;;;;;5362377;26;20016;-70
2024/04/17 06:59:49;;;;;;;57.10;54.20;;;;;;;;;;5360374;26;20012;-70
2024/04/17 07:02:15;;;;;;;56.10;53.20;;;;;;;;;;5358684;26;20051;-70
2024/04/17 07:04:40;;;;;;;55.47;51.67;;;;;;;;;;5356478;26;20052;-70
2024/04/17 07:07:05;;;;;;;54.00;51.00;;;;;;;;;;5356165;26;20117;-65
2024/04/17 07:09:31;;;;;;;54.10;51.35;;;;;;;;;;5356694;26;20051;-70
2024/04/17 07:11:56;;;;;;;43.38;41.17;;;;;;;;;;5362698;26;20426;-69
2024/04/17 07:14:21;;;;;;;41.88;39.78;;;;;;;;;;5358786;26;20044;-70
2024/04/17 07:16:47;;;;;;;31.13;29.42;;;;;;;;;;5353942;26;20009;-69
2024/04/17 07:19:12;;;;;;;36.30;34.38;;;;;;;;;;5360163;26;20028;-70
2024/04/17 07:21:37;;;;;;;29.17;27.63;;;;;;;;;;5359895;26;20004;-69
2024/04/17 07:24:03;;;;;;;40.05;38.00;;;;;;;;;;5361000;26;20013;-69
2024/04/17 07:26:28;;;;;;;35.50;33.35;;;;;;;;;;5356721;26;20016;-70
2024/04/17 07:28:54;;;;;;;37.63;35.70;;;;;;;;;;5357760;26;20016;-71
2024/04/17 07:31:19;;;;;;;42.65;40.47;;;;;;;;;;5356696;26;20008;-70
2024/04/17 07:33:47;;;;;;;31.67;30.02;;;;;;;;;;5359298;26;20016;-70
2024/04/17 07:36:13;;;;;;;38.72;36.42;;;;;;;;;;5360255;26;20012;-70
2024/04/17 07:38:38;;;;;;;28.35;26.85;;;;;;;;;;5365137;26;20074;-69
2024/04/17 07:41:05;;;;;;;31.30;29.60;;;;;;;;;;5362246;26;20004;-70
2024/04/17 07:43:31;;;;;;;35.95;34.05;;;;;;;;;;5361546;26;20438;-69
2024/04/17 07:46:00;;;;;;;43.20;40.95;;;;;;;;;;5361671;26;20017;-70
2024/04/17 07:48:26;;;;;;;51.78;49.13;;;;;;;;;;5358957;26;20004;-69
2024/04/17 07:50:51;;;;;;;57.33;54.42;;;;;;;;;;5362398;26;20641;-70
2024/04/17 07:53:17;;;;;;;51.17;48.47;;;;;;;;;;5364655;26;20066;-69
2024/04/17 07:55:42;;;;;;;50.13;47.58;;;;;;;;;;5358608;26;20024;-67
2024/04/17 07:58:08;;;;;;;60.72;57.63;;;;;;;;;;5366164;26;20624;-68
2024/04/17 08:00:35;;;;;;;75.00;71.13;;;;;;;;;;5360719;26;20008;-67
2024/04/17 08:03:00;;;;;;;53.33;50.63;;;;;;;;;;5361481;26;20480;-68
2024/04/17 08:05:26;;;;;;;75.60;71.85;;;;;;;;;;5362507;26;20009;-69
2024/04/17 08:07:52;;;;;;;121.75;115.70;;;;;;;;;;5362545;26;20052;-68
2024/04/17 08:10:17;;;;;;;77.95;74.10;;;;;;;;;;5362545;26;20013;-67
2024/04/17 08:12:42;;;;;;;107.10;101.80;;;;;;;;;;5358043;26;20310;-66
2024/04/17 08:15:10;;;;;;;96.80;92.00;;;;;;;;;;5359709;26;20026;-66
2024/04/17 08:17:35;;;;;;;115.82;110.13;;;;;;;;;;5361299;26;20726;-66
2024/04/17 08:20:01;;;;;;;150.38;142.93;;;;;;;;;;5360583;26;20121;-66
2024/04/17 08:22:26;;;;;;;173.73;165.07;;;;;;;;;;5358333;26;20040;-67
2024/04/17 08:24:52;;;;;;;172.60;164.05;;;;;;;;;;5414083;26;20642;-66
2024/04/17 08:27:18;;;;;;;201.30;191.38;;;;;;;;;;5367579;26;20307;-66
2024/04/17 08:29:43;;;;;;;192.32;182.85;;;;;;;;;;5361891;26;20013;-67
2024/04/17 08:32:08;;;;;;;181.60;172.65;;;;;;;;;;5362872;26;20008;-65
2024/04/17 08:34:34;;;;;;;187.25;178.00;;;;;;;;;;5361013;26;20056;-67
2024/04/17 08:36:59;;;;;;;207.32;197.10;;;;;;;;;;5361667;26;20009;-66
2024/04/17 08:39:43;;;;;;;195.35;185.70;;;;;;;;;;5356645;26;20433;-66
2024/04/17 08:42:31;;;;;;;199.05;189.13;;;;;;;;;;5358786;26;20521;-67
2024/04/17 08:45:28;;;;;;;176.85;167.80;;;;;;;;;;5352085;26;20012;-67
2024/04/17 08:48:15;;;;;;;128.30;121.93;;;;;;;;;;5350268;26;20004;-67
2024/04/17 09:15:30;;;;;;;111.30;105.80;;;;;;;;;;5530785;25;20433;-66
2024/04/17 09:18:23;;;;;;;81.43;76.95;;;;;;;;;;5507144;25;20042;-65
2024/04/17 09:21:09;;;;;;;73.75;70.05;;;;;;;;;;5520368;25;20021;-65
2024/04/17 09:23:55;;;;;;;74.22;70.47;;;;;;;;;;5516096;25;20017;-66
2024/04/17 09:26:41;;;;;;;78.32;73.65;;;;;;;;;;5486808;25;20017;-66
2024/04/17 09:29:26;;;;;;;86.93;82.63;;;;;;;;;;5513347;25;20002;-67
2024/04/17 09:32:15;;;;;;;85.50;81.25;;;;;;;;;;5509946;25;20057;-67
2024/04/17 09:35:01;;;;;;;99.13;94.22;;;;;;;;;;5508632;25;20020;-67
2024/04/17 09:37:46;;;;;;;82.07;77.97;;;;;;;;;;5516480;25;20020;-67
2024/04/17 09:40:32;;;;;;;72.85;68.90;;;;;;;;;;5515173;25;20024;-67
2024/04/17 09:43:25;;;;;;;78.72;74.72;;;;;;;;;;5510264;25;20005;-69
2024/04/17 09:46:14;;;;;;;83.97;79.70;;;;;;;;;;5503526;25;20078;-71
2024/04/17 09:49:09;;;;;;;75.75;71.97;;;;;;;;;;5519099;25;20422;-70
2024/04/17 09:51:59;;;;;;;86.88;82.43;;;;;;;;;;5508975;25;20010;-71
2024/04/17 09:54:45;;;;;;;86.50;82.20;;;;;;;;;;5487150;25;20005;-70
2024/04/17 09:57:32;;;;;;;84.15;79.95;;;;;;;;;;5507937;25;20045;-70
2024/04/17 10:00:18;;;;;;;87.60;83.20;;;;;;;;;;5509538;25;20692;-69
2024/04/17 10:03:06;;;;;;;84.28;80.13;;;;;;;;;;5506097;25;20430;-69
2024/04/17 10:05:52;;;;;;;93.50;88.85;;;;;;;;;;5511143;25;20001;-69
2024/04/17 10:08:39;;;;;;;90.82;86.32;;;;;;;;;;5509345;25;20009;-70
2024/04/17 10:11:26;;;;;;;82.38;78.30;;;;;;;;;;5510678;25;20014;-69
2024/04/17 10:14:13;;;;;;;90.97;86.45;;;;;;;;;;5509002;25;20025;-69
2024/04/17 10:16:58;;;;;;;83.03;78.93;;;;;;;;;;5495673;25;20009;-69
2024/04/17 10:19:51;;;;;;;88.60;84.20;;;;;;;;;;5495252;25;20571;-69
2024/04/17 10:22:37;;;;;;;78.47;74.35;;;;;;;;;;5486293;26;20018;-68
2024/04/17 10:25:26;;;;;;;85.57;81.35;;;;;;;;;;5492073;25;20518;-68
2024/04/17 10:28:18;;;;;;;89.18;84.78;;;;;;;;;;5495670;25;20184;-68
2024/04/17 10:31:03;;;;;;;75.75;72.00;;;;;;;;;;5493087;26;20079;-68
2024/04/17 10:33:49;;;;;;;84.47;80.30;;;;;;;;;;5473317;26;20082;-68
2024/04/17 10:36:34;;;;;;;79.22;75.28;;;;;;;;;;5498542;25;20002;-68
2024/04/17 10:39:20;;;;;;;65.57;62.33;;;;;;;;;;5495290;25;20017;-68
2024/04/17 10:42:07;;;;;;;67.15;63.80;;;;;;;;;;5495346;25;20006;-68
2024/04/17 10:44:55;;;;;;;73.45;69.82;;;;;;;;;;5494370;25;20009;-69
2024/04/17 10:47:40;;;;;;;80.78;76.75;;;;;;;;;;5492719;26;20013;-69
2024/04/17 10:50:27;;;;;;;64.35;61.13;;;;;;;;;;5503827;25;20006;-69
2024/04/17 10:53:13;;;;;;;81.40;77.32;;;;;;;;;;5489854;26;20028;-71
2024/04/17 10:56:00;;;;;;;73.22;69.57;;;;;;;;;;5498843;25;20025;-68
2024/04/17 10:58:45;;;;;;;66.93;63.60;;;;;;;;;;5497901;25;20017;-68
2024/04/17 11:01:31;;;;;;;72.00;68.40;;;;;;;;;;5496705;25;20117;-67
2024/04/17 11:04:17;;;;;;;79.03;75.10;;;;;;;;;;5494024;26;20072;-66
2024/04/17 11:07:06;;;;;;;77.70;73.82;;;;;;;;;;5492436;25;20061;-66
2024/04/17 11:09:52;;;;;;;80.78;76.78;;;;;;;;;;5493075;25;20013;-66
2024/04/17 11:12:38;;;;;;;71.30;67.75;;;;;;;;;;5492395;25;20487;-66
2024/04/17 11:15:23;;;;;;;76.85;73.05;;;;;;;;;;5491719;25;20013;-66
2024/04/17 11:18:10;;;;;;;73.30;69.60;;;;;;;;;;5495470;25;20609;-66
2024/04/17 11:20:56;;;;;;;85.38;80.35;;;;;;;;;;5492094;25;20073;-66
2024/04/17 11:23:43;;;;;;;73.93;70.22;;;;;;;;;;5495598;25;20013;-66
2024/04/17 11:26:32;;;;;;;77.05;73.25;;;;;;;;;;5489659;25;20615;-66
2024/04/17 11:29:21;;;;;;;72.15;68.55;;;;;;;;;;5496497;25;20017;-69
2024/04/17 11:32:07;;;;;;;72.60;68.95;;;;;;;;;;5495536;25;20058;-68
2024/04/17 11:34:53;;;;;;;73.03;69.38;;;;;;;;;;5495710;25;20001;-69
2024/04/17 11:37:38;;;;;;;79.22;75.22;;;;;;;;;;5489787;25;20032;-68
2024/04/17 11:40:25;;;;;;;70.32;66.82;;;;;;;;;;5448524;26;20083;-66
2024/04/17 11:43:15;;;;;;;69.70;66.07;;;;;;;;;;5494946;25;19997;-68
2024/04/17 11:46:01;;;;;;;59.27;56.30;;;;;;;;;;5496007;25;20093;-68
2024/04/17 11:48:47;;;;;;;74.18;70.47;;;;;;;;;;5467218;25;20242;-67
2024/04/17 11:51:33;;;;;;;70.85;67.32;;;;;;;;;;5495214;25;20367;-66
2024/04/17 11:54:19;;;;;;;80.43;76.43;;;;;;;;;;5473860;25;20013;-67
2024/04/17 11:57:06;;;;;;;99.47;94.57;;;;;;;;;;5498210;25;20002;-67
2024/04/17 11:59:51;;;;;;;59.75;56.72;;;;;;;;;;5493001;25;20028;-67
2024/04/17 12:02:37;;;;;;;62.70;59.58;;;;;;;;;;5487771;25;20438;-66
2024/04/17 12:05:23;;;;;;;59.05;56.10;;;;;;;;;;5501139;25;20339;-68
2024/04/17 12:08:09;;;;;;;61.17;58.08;;;;;;;;;;5495033;25;20073;-68
2024/04/17 12:10:54;;;;;;;61.40;58.33;;;;;;;;;;5499506;25;20662;-68
2024/04/17 12:13:40;;;;;;;70.05;66.53;;;;;;;;;;5464349;26;20005;-68
2024/04/17 12:16:26;;;;;;;69.72;66.22;;;;;;;;;;5496297;25;20017;-67
2024/04/17 12:19:13;;;;;;;65.65;62.35;;;;;;;;;;5493146;25;20050;-67
2024/04/17 12:21:59;;;;;;;72.35;68.55;;;;;;;;;;5494693;25;20420;-67
2024/04/17 12:27:49;;;;;;;71.35;67.80;;;;;;;;;;5496492;25;20001;-68
2024/04/17 12:30:35;;;;;;;62.25;58.10;;;;;;;;;;5497123;25;20024;-68
2024/04/17 12:33:22;;;;;;;65.25;62.00;;;;;;;;;;5489008;25;20012;-67
2024/04/17 12:36:08;;;;;;;66.15;62.80;;;;;;;;;;5498117;25;20733;-66
2024/04/17 12:38:54;;;;;;;72.85;69.18;;;;;;;;;;5499069;25;20013;-64
2024/04/17 12:41:40;;;;;;;74.55;70.85;;;;;;;;;;5496007;25;20009;-67
2024/04/17 12:44:25;;;;;;;76.28;72.47;;;;;;;;;;5496373;26;20689;-67
2024/04/17 12:47:11;;;;;;;71.90;68.20;;;;;;;;;;5496572;26;20012;-67
2024/04/17 12:49:56;;;;;;;77.18;73.30;;;;;;;;;;5497941;25;20025;-67
2024/04/17 12:52:42;;;;;;;105.30;100.13;;;;;;;;;;5498089;25;20016;-66
2024/04/17 12:55:28;;;;;;;97.70;92.90;;;;;;;;;;5471569;26;20029;-66
2024/04/17 12:58:13;;;;;;;67.88;64.47;;;;;;;;;;5492551;26;20099;-66
2024/04/17 13:01:03;;;;;;;72.60;68.90;;;;;;;;;;5501965;25;20016;-67
2024/04/17 13:03:49;;;;;;;83.70;79.55;;;;;;;;;;5505815;25;20006;-66
2024/04/17 13:06:35;;;;;;;87.72;83.38;;;;;;;;;;5488331;25;20016;-66
2024/04/17 13:09:20;;;;;;;79.22;74.82;;;;;;;;;;5508851;25;20006;-66
2024/04/17 13:12:06;;;;;;;113.10;107.53;;;;;;;;;;5498502;25;20006;-66
2024/04/17 13:14:52;;;;;;;101.18;96.18;;;;;;;;;;5512197;25;20006;-66
2024/04/17 13:17:38;;;;;;;111.78;105.32;;;;;;;;;;5505882;25;20008;-66
2024/04/17 13:20:23;;;;;;;98.07;93.25;;;;;;;;;;5487136;25;20319;-66
2024/04/17 13:23:09;;;;;;;77.72;73.78;;;;;;;;;;5481066;25;20391;-67
2024/04/17 13:25:59;;;;;;;76.63;72.80;;;;;;;;;;5510132;25;21038;-67
2024/04/17 13:28:44;;;;;;;68.03;64.63;;;;;;;;;;5508947;25;20070;-67
2024/04/17 13:31:30;;;;;;;76.20;72.40;;;;;;;;;;5512538;25;20326;-67
2024/04/17 13:34:15;;;;;;;69.75;66.25;;;;;;;;;;5508860;25;20005;-66
2024/04/17 13:37:01;;;;;;;73.07;69.47;;;;;;;;;;5504348;25;20024;-66
2024/04/17 13:39:47;;;;;;;72.75;69.15;;;;;;;;;;5483362;25;20098;-66
2024/04/17 13:42:32;;;;;;;65.82;62.53;;;;;;;;;;5507957;25;20018;-66
2024/04/17 13:45:18;;;;;;;79.97;75.97;;;;;;;;;;5481280;25;20017;-67
2024/04/17 13:48:04;;;;;;;79.65;75.70;;;;;;;;;;5508050;25;20013;-66
2024/04/17 13:51:00;;;;;;;69.00;65.55;;;;;;;;;;5510771;25;20000;-66
2024/04/17 13:53:52;;;;;;;65.88;62.58;;;;;;;;;;5484551;25;20020;-66
2024/04/17 13:56:37;;;;;;;63.67;60.47;;;;;;;;;;5503618;25;20006;-67
2024/04/17 13:59:23;;;;;;;71.40;67.85;;;;;;;;;;5507986;25;20017;-66
2024/04/17 14:02:09;;;;;;;65.28;61.97;;;;;;;;;;5483426;25;20416;-67
2024/04/17 14:04:54;;;;;;;64.82;61.60;;;;;;;;;;5491567;25;20715;-66
2024/04/17 14:07:40;;;;;;;65.57;62.28;;;;;;;;;;5512621;25;20013;-65
2024/04/17 14:10:26;;;;;;;71.15;67.60;;;;;;;;;;5505045;25;20008;-66
2024/04/17 14:13:12;;;;;;;73.65;69.95;;;;;;;;;;5507228;25;20006;-66
2024/04/17 14:16:02;;;;;;;64.75;61.50;;;;;;;;;;5498170;25;20078;-66
2024/04/17 14:18:47;;;;;;;60.23;57.20;;;;;;;;;;5492565;25;20010;-66
2024/04/17 14:21:33;;;;;;;62.28;59.17;;;;;;;;;;5501924;25;20079;-66
2024/04/17 14:24:19;;;;;;;63.60;60.40;;;;;;;;;;5499889;25;20071;-66
2024/04/17 14:27:04;;;;;;;63.10;59.13;;;;;;;;;;5479767;26;20629;-66
2024/04/17 14:29:50;;;;;;;72.53;68.93;;;;;;;;;;5492800;26;20607;-67
2024/04/17 14:32:36;;;;;;;61.95;58.80;;;;;;;;;;5496720;25;20009;-66
2024/04/17 14:35:21;;;;;;;67.60;64.22;;;;;;;;;;5497278;26;20028;-65
2024/04/17 14:38:07;;;;;;;68.05;64.65;;;;;;;;;;5492931;25;20013;-66
2024/04/17 14:41:00;;;;;;;67.90;64.50;;;;;;;;;;5462637;26;20396;-67
2024/04/17 14:43:45;;;;;;;64.80;61.25;;;;;;;;;;5499675;25;20024;-66
2024/04/17 14:46:31;;;;;;;66.95;63.63;;;;;;;;;;5477127;25;20005;-66
2024/04/17 14:49:17;;;;;;;63.78;60.58;;;;;;;;;;5485018;25;20187;-66
2024/04/17 14:52:03;;;;;;;65.65;62.38;;;;;;;;;;5488424;25;20016;-66
2024/04/17 14:54:49;;;;;;;60.85;57.78;;;;;;;;;;5489963;25;20027;-66
2024/04/17 14:57:35;;;;;;;63.90;60.70;;;;;;;;;;5477327;26;20005;-66
2024/04/17 15:00:21;;;;;;;61.53;58.42;;;;;;;;;;5489748;26;20022;-65
2024/04/17 15:03:06;;;;;;;60.28;57.22;;;;;;;;;;5487909;25;20002;-66
2024/04/17 15:05:53;;;;;;;70.57;67.07;;;;;;;;;;5471978;26;20239;-66
2024/04/17 15:08:39;;;;;;;72.32;68.65;;;;;;;;;;5498070;25;19997;-65
2024/04/17 15:11:24;;;;;;;106.28;101.03;;;;;;;;;;5489198;26;20024;-67
2024/04/17 15:14:10;;;;;;;106.82;101.55;;;;;;;;;;5496429;25;20021;-66
2024/04/17 15:16:55;;;;;;;106.07;100.85;;;;;;;;;;5507760;25;20570;-66
2024/04/17 15:19:44;;;;;;;96.80;92.03;;;;;;;;;;5512259;25;20089;-65
2024/04/17 15:22:29;;;;;;;88.55;84.18;;;;;;;;;;5485125;25;20100;-65